Time;durP1;ratioP1;P1;durP2;ratioP2;P2;SDS_P1;SDS_P2;PMS_P1;PMS_P2;Temp;Humidity;BMP_temperature;BMP_pressure;BME280_temperature;BME280_humidity;BME280_pressure;Samples;Min_cycle;Max_cycle;Signal;HPM_P1;HPM_P2
2022/04/14 00:00:33;;;;;;;7.70;3.97;;;14.50;99.90;;;;;;5083984;28;20489;-88
2022/04/14 00:03:17;;;;;;;8.87;4.60;;;14.40;99.90;;;;;;5082188;28;20449;-87
2022/04/14 00:05:49;;;;;;;6.27;4.10;;;14.40;99.90;;;;;;5083736;28;20430;-88
2022/04/14 00:08:35;;;;;;;9.67;4.10;;;14.50;99.90;;;;;;5083940;28;20423;-88
2022/04/14 00:11:05;;;;;;;7.57;4.07;;;14.50;99.90;;;;;;5088946;28;20981;-87
2022/04/14 00:13:38;;;;;;;7.57;3.40;;;14.40;99.90;;;;;;5086443;28;20446;-87
2022/04/14 00:16:08;;;;;;;8.63;4.00;;;14.30;99.90;;;;;;5085530;28;20455;-87
2022/04/14 00:18:43;;;;;;;7.87;3.63;;;14.30;99.90;;;;;;5085760;28;20418;-86
2022/04/14 00:21:14;;;;;;;8.10;3.90;;;14.30;99.90;;;;;;5083555;28;20447;-87
2022/04/14 00:23:50;;;;;;;6.27;3.40;;;14.20;99.90;;;;;;5089633;28;20499;-88
2022/04/14 00:26:30;;;;;;;10.10;4.03;;;14.20;99.90;;;;;;5091309;28;20466;-88
2022/04/14 00:29:02;;;;;;;7.50;4.47;;;14.20;99.90;;;;;;5092720;28;20407;-88
2022/04/14 00:31:44;;;;;;;11.53;4.30;;;14.30;99.90;;;;;;5084456;28;20450;-88
2022/04/14 00:34:23;;;;;;;12.90;4.20;;;14.20;99.90;;;;;;5085312;28;20399;-88
2022/04/14 00:36:58;;;;;;;10.20;4.20;;;14.10;99.90;;;;;;5085292;28;20466;-87
2022/04/14 00:39:31;;;;;;;10.50;3.57;;;13.90;99.90;;;;;;5084352;28;20461;-87
2022/04/14 00:42:07;;;;;;;13.10;4.20;;;13.90;99.90;;;;;;5084180;28;20444;-88
2022/04/14 00:44:42;;;;;;;8.40;4.07;;;13.80;99.90;;;;;;5082584;28;20426;-86
2022/04/14 00:47:26;;;;;;;9.10;4.10;;;13.80;99.90;;;;;;5084515;28;20430;-88
2022/04/14 00:49:56;;;;;;;9.67;4.67;;;13.80;99.90;;;;;;5085319;28;20430;-87
2022/04/14 00:52:28;;;;;;;10.13;4.37;;;13.80;99.90;;;;;;5083756;28;20521;-87
2022/04/14 00:55:06;;;;;;;6.63;3.50;;;13.80;99.90;;;;;;5085153;28;20479;-87
2022/04/14 00:57:48;;;;;;;8.27;4.23;;;13.80;99.90;;;;;;5076687;28;20438;-87
2022/04/14 01:00:20;;;;;;;7.70;4.20;;;13.90;99.90;;;;;;5077716;28;20468;-87
2022/04/14 01:05:24;;;;;;;7.93;4.30;;;13.90;99.90;;;;;;5063280;28;20443;-85
2022/04/14 01:08:32;;;;;;;10.13;4.40;;;13.80;99.90;;;;;;5062601;28;20506;-87
2022/04/14 01:11:33;;;;;;;6.10;3.70;;;13.80;99.90;;;;;;5065263;28;20432;-87
2022/04/14 01:14:13;;;;;;;9.37;4.43;;;13.90;99.90;;;;;;5075119;28;20447;-86
2022/04/14 01:17:07;;;;;;;10.00;4.43;;;13.70;99.90;;;;;;5074047;28;20441;-87
2022/04/14 01:20:15;;;;;;;6.20;3.80;;;13.50;99.90;;;;;;5048088;28;20456;-85
2022/04/14 01:23:02;;;;;;;6.13;4.03;;;13.50;99.90;;;;;;5075605;28;20498;-86
2022/04/14 01:25:53;;;;;;;9.63;4.13;;;13.60;99.90;;;;;;5069277;28;20427;-86
2022/04/14 01:28:42;;;;;;;8.50;4.47;;;13.70;99.90;;;;;;5062639;28;20457;-87
2022/04/14 01:31:37;;;;;;;8.10;4.23;;;13.60;99.90;;;;;;5064793;28;20419;-86
2022/04/14 01:34:25;;;;;;;9.00;4.40;;;13.50;99.90;;;;;;5066610;28;20450;-84
2022/04/14 01:37:20;;;;;;;9.90;4.60;;;13.50;99.90;;;;;;5066992;28;20891;-87
2022/04/14 01:39:53;;;;;;;13.90;4.90;;;13.50;99.90;;;;;;5061913;28;20431;-86
2022/04/14 01:42:27;;;;;;;12.77;4.00;;;13.50;99.90;;;;;;5062843;28;20437;-86
2022/04/14 01:48:53;;;;;;;7.33;4.47;;;13.40;99.90;;;;;;5044443;28;20467;-86
2022/04/14 01:51:51;;;;;;;9.70;5.03;;;13.30;99.90;;;;;;5067852;28;20453;-87
2022/04/14 02:00:24;;;;;;;10.17;4.23;;;13.20;99.90;;;;;;5030567;28;20422;-86
2022/04/14 02:06:12;;;;;;;11.30;3.90;;;13.20;99.90;;;;;;5073570;28;20418;-87
2022/04/14 02:18:11;;;;;;;6.80;4.20;;;13.20;99.90;;;;;;5068038;28;20446;-88
2022/04/14 02:20:51;;;;;;;10.47;5.20;;;13.20;99.90;;;;;;5065084;28;20442;-86
2022/04/14 02:23:31;;;;;;;8.03;4.37;;;13.30;99.90;;;;;;5065587;28;20472;-86
2022/04/14 02:32:10;;;;;;;8.10;3.93;;;13.30;99.90;;;;;;5037738;28;20526;-86
2022/04/14 02:34:50;;;;;;;7.40;4.13;;;13.20;99.90;;;;;;5065524;28;20807;-86
2022/04/14 02:37:27;;;;;;;9.90;4.80;;;13.20;99.90;;;;;;5065103;28;20471;-88
2022/04/14 02:40:14;;;;;;;7.17;4.13;;;13.10;99.90;;;;;;5067542;28;20439;-85
2022/04/14 02:45:40;;;;;;;10.27;4.40;;;13.20;99.90;;;;;;5063586;28;20492;-88
2022/04/14 02:48:20;;;;;;;10.23;5.47;;;13.20;99.90;;;;;;5064230;28;20456;-87
2022/04/14 02:54:12;;;;;;;7.37;3.90;;;13.00;99.90;;;;;;5062772;28;20496;-87
2022/04/14 02:57:01;;;;;;;7.10;4.10;;;12.90;99.90;;;;;;5066898;28;20426;-87
2022/04/14 03:02:29;;;;;;;6.60;4.00;;;12.80;99.90;;;;;;5065370;28;20457;-87
2022/04/14 03:05:07;;;;;;;6.17;4.20;;;12.80;99.90;;;;;;5077381;28;20461;-83
2022/04/14 03:07:44;;;;;;;8.93;4.80;;;12.70;99.90;;;;;;5076634;28;20437;-86
2022/04/14 03:10:27;;;;;;;7.73;4.40;;;12.70;99.90;;;;;;5074478;28;20839;-86
2022/04/14 03:13:00;;;;;;;9.30;4.77;;;12.70;99.90;;;;;;5068967;28;20465;-83
2022/04/14 03:15:35;;;;;;;9.50;4.70;;;12.70;99.90;;;;;;5065751;28;20473;-85
2022/04/14 03:18:12;;;;;;;9.70;5.10;;;12.60;99.90;;;;;;5063027;28;20431;-86
2022/04/14 03:20:39;;;;;;;14.57;5.40;;;12.60;99.90;;;;;;5071121;28;20436;-85
2022/04/14 03:23:11;;;;;;;7.90;3.93;;;12.60;99.90;;;;;;5078959;28;20491;-85
2022/04/14 03:25:52;;;;;;;8.70;4.60;;;12.60;99.90;;;;;;5073307;28;20423;-86
2022/04/14 03:28:26;;;;;;;8.73;4.77;;;12.50;99.90;;;;;;5075241;28;20444;-85
2022/04/14 03:30:53;;;;;;;8.63;4.87;;;12.60;99.90;;;;;;5074670;28;20864;-87
2022/04/14 03:33:35;;;;;;;11.10;5.13;;;12.60;99.90;;;;;;5074623;28;20459;-86
2022/04/14 03:36:10;;;;;;;7.77;4.90;;;12.60;99.90;;;;;;5077072;28;20417;-86
2022/04/14 03:38:48;;;;;;;12.70;5.60;;;12.50;99.90;;;;;;5067328;28;20410;-85
2022/04/14 03:41:25;;;;;;;6.80;4.60;;;12.50;99.90;;;;;;5062446;28;20445;-84
2022/04/14 03:44:01;;;;;;;9.27;5.43;;;12.50;99.90;;;;;;5060430;28;20487;-85
2022/04/14 03:46:32;;;;;;;9.23;5.07;;;12.50;99.90;;;;;;5059229;28;20427;-84
2022/04/14 03:49:05;;;;;;;7.23;4.97;;;12.40;99.90;;;;;;5059545;28;20421;-85
2022/04/14 03:51:37;;;;;;;7.90;5.00;;;12.50;99.90;;;;;;5063527;28;20453;-86
2022/04/14 03:54:11;;;;;;;11.53;4.80;;;12.50;99.90;;;;;;5071765;28;20830;-85
2022/04/14 03:56:48;;;;;;;8.07;5.33;;;12.50;99.90;;;;;;5073621;28;20406;-85
2022/04/14 03:59:16;;;;;;;11.03;5.40;;;12.40;99.90;;;;;;5078751;28;20435;-84
2022/04/14 04:01:57;;;;;;;13.63;5.47;;;12.40;99.90;;;;;;5075719;28;20460;-86
2022/04/14 04:07:33;;;;;;;9.20;5.70;;;12.40;99.90;;;;;;5060119;28;20435;-84
2022/04/14 04:10:17;;;;;;;8.20;4.70;;;12.40;99.90;;;;;;5062053;28;20458;-85
2022/04/14 04:12:45;;;;;;;12.10;5.47;;;12.50;99.90;;;;;;5061224;28;20510;-84
2022/04/14 04:15:26;;;;;;;8.77;5.40;;;12.40;99.90;;;;;;5060036;28;20452;-86
2022/04/14 04:18:18;;;;;;;10.30;5.13;;;12.40;99.90;;;;;;5061654;28;20515;-86
2022/04/14 04:20:52;;;;;;;11.13;6.27;;;12.50;99.90;;;;;;5061890;28;20758;-85
2022/04/14 04:26:07;;;;;;;10.10;5.87;;;12.50;99.90;;;;;;5060492;28;20445;-87
2022/04/14 04:29:01;;;;;;;11.70;6.07;;;12.40;99.90;;;;;;5061293;28;20842;-86
2022/04/14 04:32:08;;;;;;;10.10;6.03;;;12.50;99.90;;;;;;5062480;28;20458;-85
2022/04/14 04:35:02;;;;;;;13.67;6.33;;;12.50;99.90;;;;;;5064345;28;20448;-85
2022/04/14 04:38:00;;;;;;;10.03;6.67;;;12.50;99.90;;;;;;5061254;28;20448;-85
2022/04/14 04:40:59;;;;;;;12.03;6.07;;;12.40;99.90;;;;;;5061153;28;20436;-84
2022/04/14 04:46:53;;;;;;;11.63;6.63;;;12.50;99.90;;;;;;5070074;28;20426;-85
2022/04/14 04:49:44;;;;;;;16.47;7.20;;;12.40;99.90;;;;;;5073571;28;20490;-86
2022/04/14 04:55:43;;;;;;;10.13;7.13;;;12.50;99.90;;;;;;4989016;28;20480;-83
2022/04/14 05:01:17;;;;;;;12.03;8.70;;;12.40;99.90;;;;;;5064450;28;20547;-85
2022/04/14 05:03:56;;;;;;;10.60;7.40;;;12.40;99.90;;;;;;5062680;28;21039;-85
2022/04/14 05:06:46;;;;;;;12.10;8.47;;;12.40;99.90;;;;;;5062550;28;20503;-86
2022/04/14 05:09:13;;;;;;;12.87;8.73;;;12.40;99.90;;;;;;5062882;28;20855;-85
2022/04/14 05:11:46;;;;;;;14.40;9.13;;;12.40;99.90;;;;;;5062667;28;20424;-86
2022/04/14 05:14:23;;;;;;;14.63;8.97;;;12.40;99.90;;;;;;5061361;28;20484;-86
2022/04/14 05:16:55;;;;;;;18.37;9.13;;;12.50;99.90;;;;;;5060274;28;20415;-86
2022/04/14 05:19:32;;;;;;;17.53;9.80;;;12.50;99.90;;;;;;5061599;28;20512;-86
2022/04/14 05:22:06;;;;;;;21.47;11.17;;;12.60;99.90;;;;;;5062014;28;20506;-86
2022/04/14 05:24:38;;;;;;;17.57;11.27;;;12.60;99.90;;;;;;5061805;28;20415;-86
2022/04/14 05:27:12;;;;;;;17.43;11.30;;;12.60;99.90;;;;;;5061398;28;20402;-86
2022/04/14 05:29:59;;;;;;;17.90;12.17;;;12.60;99.90;;;;;;5060940;28;20517;-85
2022/04/14 05:32:35;;;;;;;14.93;10.93;;;12.70;99.90;;;;;;5063616;28;20572;-86
2022/04/14 05:38:04;;;;;;;14.90;11.27;;;12.60;99.90;;;;;;5062048;28;20949;-86
2022/04/14 05:40:32;;;;;;;17.33;12.43;;;12.60;99.90;;;;;;5063916;28;20455;-85
2022/04/14 05:42:59;;;;;;;21.20;13.53;;;12.80;99.90;;;;;;5063285;28;20501;-86
2022/04/14 05:45:30;;;;;;;16.57;12.67;;;13.00;99.90;;;;;;5071097;28;20435;-84
2022/04/14 05:47:58;;;;;;;18.70;12.60;;;12.90;99.90;;;;;;5071769;28;20464;-85
2022/04/14 05:50:27;;;;;;;18.50;13.03;;;13.20;99.90;;;;;;5065051;28;20444;-86
2022/04/14 05:52:59;;;;;;;19.60;12.83;;;13.10;99.90;;;;;;5059734;28;20835;-86
2022/04/14 05:55:33;;;;;;;21.60;14.53;;;13.20;99.90;;;;;;5061441;28;20408;-86
2022/04/14 05:58:00;;;;;;;20.43;15.20;;;13.20;99.90;;;;;;5069082;28;20415;-86
2022/04/14 06:00:47;;;;;;;20.20;14.93;;;13.30;99.90;;;;;;5065389;28;20420;-86
2022/04/14 06:03:28;;;;;;;21.23;13.90;;;13.30;99.90;;;;;;5061683;28;20484;-86
2022/04/14 06:06:13;;;;;;;21.50;15.30;;;13.30;99.90;;;;;;5060569;28;20930;-86
2022/04/14 06:08:52;;;;;;;29.03;16.30;;;13.40;99.90;;;;;;5060347;28;20411;-86
2022/04/14 06:14:20;;;;;;;27.00;17.67;;;13.60;99.90;;;;;;5064889;28;20492;-87
2022/04/14 06:17:03;;;;;;;26.20;15.83;;;13.70;99.90;;;;;;5075225;28;20516;-87
2022/04/14 06:19:33;;;;;;;25.17;17.20;;;13.80;99.90;;;;;;5066562;28;20434;-87
2022/04/14 06:22:06;;;;;;;26.90;17.90;;;13.90;99.90;;;;;;5076208;28;20474;-85
2022/04/14 06:24:39;;;;;;;24.70;18.97;;;14.10;99.90;;;;;;5070302;28;20391;-86
2022/04/14 06:27:27;;;;;;;28.37;21.17;;;14.20;99.90;;;;;;5072178;28;20447;-85
2022/04/14 06:30:13;;;;;;;;;;;;;;;;;;;;;
2022/04/14 06:32:45;;;;;;;39.80;22.10;;;14.60;99.90;;;;;;5064126;28;20469;-86
2022/04/14 06:35:15;;;;;;;26.40;20.73;;;14.70;99.90;;;;;;5070751;28;20438;-84
2022/04/14 06:41:25;;;;;;;28.70;21.83;;;15.10;99.90;;;;;;5059422;28;20427;-85
2022/04/14 06:44:32;;;;;;;34.80;23.00;;;15.20;99.90;;;;;;5060383;28;20544;-85
2022/04/14 07:11:36;;;;;;;27.80;17.40;;;15.70;99.90;;;;;;5079362;28;20441;-86
2022/04/14 07:14:14;;;;;;;28.37;19.70;;;15.90;99.90;;;;;;5079440;28;20476;-85
2022/04/14 07:26:34;;;;;;;26.00;18.17;;;16.10;99.90;;;;;;5063498;28;20453;-88
2022/04/14 07:32:43;;;;;;;;;;;;;;;;;;;;;
2022/04/14 07:35:52;;;;;;;27.90;20.13;;;16.20;99.90;;;;;;5045606;28;20477;-87
2022/04/14 07:39:18;;;;;;;23.13;17.97;;;16.30;99.90;;;;;;4993252;28;20414;-88
2022/04/14 07:45:56;;;;;;;22.70;18.97;;;16.60;99.90;;;;;;4869850;29;20817;-88
2022/04/14 07:52:01;;;;;;;26.40;16.00;;;16.70;99.90;;;;;;4933129;28;20432;-86
2022/04/14 07:54:57;;;;;;;27.30;18.30;;;16.80;99.90;;;;;;4933488;28;20498;-87
2022/04/14 07:57:27;;;;;;;23.43;17.70;;;16.70;99.90;;;;;;4930476;29;20473;-89
2022/04/14 08:00:23;;;;;;;21.27;18.73;;;16.70;99.90;;;;;;4991651;28;20454;-87
2022/04/14 08:03:39;;;;;;;;;;;;;;;;;;;;;
2022/04/14 08:06:17;;;;;;;24.13;15.97;;;16.80;99.90;;;;;;5066458;28;20440;-88
2022/04/14 08:17:42;;;;;;;25.03;18.77;;;17.10;99.90;;;;;;5061557;28;20459;-89
2022/04/14 08:23:25;;;;;;;21.40;17.60;;;17.30;99.90;;;;;;5062569;28;20415;-87
2022/04/14 08:25:59;;;;;;;22.03;15.97;;;17.30;99.90;;;;;;5068918;28;20483;-90
2022/04/14 08:28:33;;;;;;;26.23;17.47;;;17.30;99.90;;;;;;5071130;28;20425;-89
2022/04/14 08:31:41;;;;;;;23.87;18.40;;;17.20;99.90;;;;;;5072670;28;20469;-87
2022/04/14 08:37:29;;;;;;;22.20;15.43;;;17.40;99.90;;;;;;4974934;29;20460;-88
2022/04/14 08:40:01;;;;;;;25.90;16.43;;;17.60;99.90;;;;;;5016462;28;20562;-91
2022/04/14 08:48:32;;;;;;;35.73;17.57;;;17.50;99.90;;;;;;5056153;28;20429;-88
2022/04/14 08:51:10;;;;;;;24.00;18.50;;;17.50;99.90;;;;;;5066060;28;20443;-87
2022/04/14 08:53:41;;;;;;;27.43;18.47;;;17.50;99.90;;;;;;5065133;28;20480;-88
2022/04/14 08:56:09;;;;;;;24.00;18.10;;;17.60;99.90;;;;;;5065777;28;20552;-87
2022/04/14 08:58:49;;;;;;;53.53;21.07;;;17.70;99.90;;;;;;5067292;28;20437;-87
2022/04/14 09:01:36;;;;;;;24.00;18.10;;;17.80;99.90;;;;;;5069226;28;20455;-89
2022/04/14 09:04:05;;;;;;;31.07;19.37;;;17.90;99.90;;;;;;5068181;28;20526;-88
2022/04/14 09:06:35;;;;;;;26.70;19.83;;;18.00;99.90;;;;;;5068530;28;20498;-87
2022/04/14 09:09:12;;;;;;;24.33;17.77;;;17.90;99.90;;;;;;5063415;28;20456;-87
2022/04/14 09:11:54;;;;;;;32.60;18.90;;;18.00;99.90;;;;;;5066819;28;20457;-87
2022/04/14 09:14:34;;;;;;;28.03;17.93;;;17.90;99.90;;;;;;5069009;28;20829;-86
2022/04/14 09:17:13;;;;;;;21.80;17.63;;;18.00;99.90;;;;;;5067349;28;20460;-87
2022/04/14 09:19:45;;;;;;;33.07;18.00;;;18.00;99.90;;;;;;5065560;28;20475;-86
2022/04/14 09:22:20;;;;;;;37.20;17.33;;;18.10;99.90;;;;;;5066858;28;20433;-85
2022/04/14 09:24:50;;;;;;;23.83;16.60;;;18.10;99.90;;;;;;5063572;28;20452;-86
2022/04/14 09:30:33;;;;;;;20.37;15.50;;;18.30;99.90;;;;;;5067956;28;20480;-87
2022/04/14 09:33:06;;;;;;;26.13;15.80;;;18.50;99.90;;;;;;5071651;28;20496;-87
2022/04/14 09:39:06;;;;;;;32.00;18.10;;;18.50;99.90;;;;;;5069893;28;20452;-87
2022/04/14 09:41:49;;;;;;;50.27;20.03;;;18.50;99.90;;;;;;5065137;28;20518;-88
2022/04/14 09:44:56;;;;;;;35.00;16.67;;;18.60;99.90;;;;;;5063574;28;20443;-88
2022/04/14 09:48:16;;;;;;;;;;;;;;;;;;;;;
2022/04/14 09:50:57;;;;;;;22.43;17.37;;;18.80;99.90;;;;;;5069127;28;20431;-87
2022/04/14 09:53:42;;;;;;;88.97;24.07;;;18.70;99.90;;;;;;5072298;28;20449;-89
2022/04/14 10:03:39;;;;;;;20.80;18.17;;;18.80;99.90;;;;;;4949536;28;20795;-88
2022/04/14 10:06:12;;;;;;;121.63;24.40;;;19.00;99.90;;;;;;4986483;28;20430;-87
2022/04/14 10:08:53;;;;;;;27.70;19.23;;;19.10;99.90;;;;;;5058274;28;20523;-88
2022/04/14 10:11:29;;;;;;;18.30;14.10;;;19.20;99.90;;;;;;5066456;28;20445;-87
2022/04/14 10:14:24;;;;;;;24.47;18.00;;;19.20;99.90;;;;;;5074919;28;20515;-89
2022/04/14 10:16:57;;;;;;;39.03;19.60;;;19.10;99.90;;;;;;5075973;28;20444;-89
2022/04/14 10:19:30;;;;;;;23.60;19.30;;;19.20;99.90;;;;;;5072529;28;20413;-87
2022/04/14 10:21:59;;;;;;;24.33;19.70;;;19.20;99.90;;;;;;5067523;28;20420;-86
2022/04/14 10:24:31;;;;;;;27.23;20.10;;;19.10;99.90;;;;;;5066989;28;20526;-89
2022/04/14 10:27:17;;;;;;;19.43;17.40;;;19.10;99.90;;;;;;5064761;28;20460;-88
2022/04/14 10:29:54;;;;;;;20.97;18.77;;;19.30;99.90;;;;;;5063655;28;20445;-88
2022/04/14 10:32:28;;;;;;;24.60;18.70;;;19.60;99.90;;;;;;5076898;28;20444;-89
2022/04/14 10:35:00;;;;;;;19.20;17.20;;;19.70;99.90;;;;;;5078755;28;20521;-90
2022/04/14 10:37:51;;;;;;;20.23;16.70;;;19.80;99.90;;;;;;5079567;28;20437;-89
2022/04/14 10:40:24;;;;;;;18.30;14.97;;;19.80;99.90;;;;;;5079800;28;20520;-89
2022/04/14 10:43:03;;;;;;;21.43;16.20;;;19.70;99.90;;;;;;5079811;28;20466;-89
2022/04/14 10:46:11;;;;;;;20.00;16.70;;;19.50;99.90;;;;;;5077961;28;20452;-90
2022/04/14 10:48:45;;;;;;;21.70;16.00;;;19.50;99.90;;;;;;5065031;28;20456;-87
2022/04/14 10:51:27;;;;;;;21.20;18.13;;;19.70;99.90;;;;;;5066317;28;20451;-89
2022/04/14 10:54:03;;;;;;;20.27;16.83;;;19.40;99.90;;;;;;5065069;28;20464;-87
2022/04/14 11:00:43;;;;;;;21.87;16.80;;;19.60;99.90;;;;;;5009533;28;20440;-88
2022/04/14 11:08:51;;;;;;;20.17;14.80;;;20.10;99.90;;;;;;5091641;28;20436;-90
2022/04/14 11:11:59;;;;;;;19.10;15.43;;;20.10;99.90;;;;;;5094035;28;20432;-88
2022/04/14 11:14:44;;;;;;;21.97;16.53;;;20.20;99.90;;;;;;5094973;28;20487;-87
2022/04/14 11:17:52;;;;;;;21.10;16.87;;;20.20;99.90;;;;;;5088479;28;20416;-87
2022/04/14 11:20:25;;;;;;;21.47;17.63;;;20.10;99.90;;;;;;5086146;28;20436;-88
2022/04/14 11:23:12;;;;;;;23.63;16.10;;;20.10;99.90;;;;;;5087753;28;20456;-88
2022/04/14 11:26:21;;;;;;;23.27;15.63;;;20.10;99.90;;;;;;5088752;28;20592;-88
2022/04/14 11:29:09;;;;;;;22.40;17.10;;;20.30;99.90;;;;;;5087148;28;20427;-89
2022/04/14 11:31:51;;;;;;;35.93;18.70;;;20.50;99.90;;;;;;5089388;28;20443;-89
2022/04/14 11:34:40;;;;;;;89.47;24.73;;;20.60;99.90;;;;;;5088891;28;20475;-89
2022/04/14 11:37:46;;;;;;;50.10;20.13;;;20.60;99.90;;;;;;5086195;28;20511;-88
2022/04/14 11:40:29;;;;;;;18.00;12.80;;;20.40;99.90;;;;;;5087306;28;20467;-88
2022/04/14 11:43:00;;;;;;;18.40;14.10;;;20.30;99.90;;;;;;5084465;28;20479;-88
2022/04/14 11:45:30;;;;;;;21.77;11.97;;;20.30;99.90;;;;;;5085979;28;20510;-87
2022/04/14 11:48:04;;;;;;;24.77;17.60;;;20.10;99.90;;;;;;5085005;28;20471;-88
2022/04/14 11:50:33;;;;;;;28.07;17.20;;;20.10;99.90;;;;;;5086203;28;20963;-87
2022/04/14 11:53:09;;;;;;;33.37;18.33;;;20.30;99.90;;;;;;5084541;28;20547;-88
2022/04/14 11:55:37;;;;;;;20.70;15.73;;;20.50;99.90;;;;;;5089453;28;20502;-88
2022/04/14 11:58:19;;;;;;;22.13;15.43;;;20.60;99.90;;;;;;5094614;28;20478;-88
2022/04/14 12:00:53;;;;;;;21.13;17.07;;;20.50;99.90;;;;;;5095244;28;20463;-88
2022/04/14 12:03:31;;;;;;;19.30;16.50;;;20.40;99.90;;;;;;5086286;28;20431;-88
2022/04/14 12:06:03;;;;;;;19.57;13.90;;;20.50;99.90;;;;;;5085694;28;20916;-88
2022/04/14 12:08:33;;;;;;;19.20;14.93;;;20.50;99.90;;;;;;5086293;28;20544;-88
2022/04/14 12:11:05;;;;;;;25.60;18.07;;;20.40;99.90;;;;;;5085722;28;20944;-87
2022/04/14 12:13:40;;;;;;;18.50;16.20;;;20.50;99.90;;;;;;5086119;28;20826;-87
2022/04/14 12:16:09;;;;;;;19.30;16.20;;;20.70;99.90;;;;;;5084968;28;20575;-88
2022/04/14 12:18:39;;;;;;;20.77;16.87;;;20.80;99.90;;;;;;5085595;28;20464;-87
2022/04/14 12:21:08;;;;;;;24.87;15.23;;;20.80;99.90;;;;;;5086614;28;20459;-88
2022/04/14 12:23:35;;;;;;;24.47;18.30;;;20.70;99.90;;;;;;5086654;28;20484;-87
2022/04/14 12:26:03;;;;;;;30.80;17.40;;;20.70;99.90;;;;;;5085865;28;20451;-87
2022/04/14 12:29:09;;;;;;;25.20;16.93;;;20.80;99.90;;;;;;5087380;28;20452;-88
2022/04/14 12:31:37;;;;;;;22.47;19.00;;;20.80;99.90;;;;;;5090026;28;20440;-88
2022/04/14 12:34:15;;;;;;;24.80;18.80;;;20.70;99.90;;;;;;5087824;28;20487;-88
2022/04/14 12:36:45;;;;;;;22.17;17.47;;;20.60;99.90;;;;;;5096911;28;20435;-88
2022/04/14 12:39:36;;;;;;;18.70;14.33;;;20.70;99.90;;;;;;5094189;28;20862;-88
2022/04/14 12:42:14;;;;;;;21.20;16.30;;;20.70;99.90;;;;;;5088255;28;20444;-87
2022/04/14 12:44:45;;;;;;;21.17;15.67;;;20.60;99.90;;;;;;5086974;28;20463;-88
2022/04/14 12:47:16;;;;;;;23.07;16.10;;;20.60;99.90;;;;;;5087607;28;20452;-86
2022/04/14 12:49:52;;;;;;;20.47;16.77;;;20.80;99.90;;;;;;5084845;28;20423;-88
2022/04/14 12:52:47;;;;;;;19.33;17.27;;;20.80;99.90;;;;;;5084394;28;20505;-86
2022/04/14 12:55:33;;;;;;;20.97;15.57;;;21.00;99.90;;;;;;5085119;28;20579;-87
2022/04/14 12:58:13;;;;;;;20.20;16.83;;;21.00;99.90;;;;;;5086490;28;20494;-88
2022/04/14 13:00:45;;;;;;;23.77;16.63;;;20.80;99.90;;;;;;5083213;28;21039;-87
2022/04/14 13:03:22;;;;;;;24.70;19.03;;;20.90;99.90;;;;;;5083744;28;20479;-87
2022/04/14 13:05:52;;;;;;;20.57;18.03;;;20.70;99.90;;;;;;5121304;22;20480;-88
2022/04/14 13:08:32;;;;;;;20.03;17.63;;;20.70;99.90;;;;;;5093682;28;20471;-86
2022/04/14 13:11:03;;;;;;;21.23;19.00;;;20.70;99.90;;;;;;5083508;28;20443;-87
2022/04/14 13:13:31;;;;;;;24.90;17.17;;;20.90;99.90;;;;;;5080102;28;20891;-87
2022/04/14 13:16:02;;;;;;;18.17;15.17;;;21.10;99.90;;;;;;5078177;28;20487;-88
2022/04/14 13:18:33;;;;;;;19.90;16.50;;;21.10;99.90;;;;;;5078677;28;20452;-87
2022/04/14 13:21:02;;;;;;;22.53;17.60;;;21.00;99.90;;;;;;5079754;28;20436;-87
2022/04/14 13:23:35;;;;;;;22.10;18.97;;;20.80;99.90;;;;;;5079497;28;20458;-87
2022/04/14 13:26:05;;;;;;;21.90;18.17;;;21.00;99.90;;;;;;5078494;28;20492;-87
2022/04/14 13:28:32;;;;;;;20.63;17.00;;;21.00;99.90;;;;;;5079803;28;20538;-87
2022/04/14 13:31:00;;;;;;;26.30;19.63;;;21.10;99.90;;;;;;5078030;28;20444;-87
2022/04/14 13:33:28;;;;;;;23.80;19.70;;;21.30;99.90;;;;;;5078413;28;20505;-87
2022/04/14 13:35:56;;;;;;;23.13;18.93;;;21.30;99.90;;;;;;5077664;28;20487;-87
2022/04/14 13:38:24;;;;;;;20.63;18.27;;;21.10;99.90;;;;;;5082100;28;20972;-87
2022/04/14 13:40:52;;;;;;;21.40;18.37;;;21.20;99.90;;;;;;5094153;28;20459;-87
2022/04/14 13:43:22;;;;;;;24.10;20.00;;;21.20;99.90;;;;;;5089312;28;20459;-87
2022/04/14 13:45:49;;;;;;;25.57;19.60;;;21.20;99.90;;;;;;5078020;28;20887;-87
2022/04/14 13:48:19;;;;;;;21.40;19.10;;;21.20;99.90;;;;;;5077894;28;20411;-87
2022/04/14 13:50:47;;;;;;;23.57;18.17;;;21.10;99.90;;;;;;5077177;28;20458;-87
2022/04/14 13:53:17;;;;;;;23.83;20.97;;;20.80;99.90;;;;;;5081118;28;20451;-87
2022/04/14 13:55:47;;;;;;;22.07;19.07;;;20.70;99.90;;;;;;5090180;28;20450;-87
2022/04/14 13:58:24;;;;;;;24.60;20.00;;;20.70;99.90;;;;;;5093023;28;20547;-88
2022/04/14 14:00:51;;;;;;;25.40;19.90;;;20.80;99.90;;;;;;5093399;28;20446;-87
2022/04/14 14:03:19;;;;;;;24.33;19.67;;;21.00;99.90;;;;;;5091375;28;20901;-87
2022/04/14 14:05:54;;;;;;;21.07;17.80;;;21.00;99.90;;;;;;5082938;28;20472;-88
2022/04/14 14:09:20;;;;;;;23.13;18.90;;;21.30;99.90;;;;;;5078262;28;20502;-87
2022/04/14 14:22:06;;;;;;;;;;;;;;;;;;;;;
2022/04/14 14:24:43;;;;;;;22.90;19.67;;;21.00;99.90;;;;;;5074674;28;20484;-87
2022/04/14 14:27:49;;;;;;;23.03;17.60;;;21.20;99.90;;;;;;5076061;28;20419;-87
2022/04/14 14:33:48;;;;;;;19.93;17.83;;;21.20;99.90;;;;;;5072957;28;20436;-88
2022/04/14 14:36:15;;;;;;;26.00;17.13;;;21.10;99.90;;;;;;5075972;28;20482;-88
2022/04/14 14:38:44;;;;;;;20.17;17.37;;;21.40;99.90;;;;;;5069055;28;20551;-88
2022/04/14 14:41:14;;;;;;;19.63;17.47;;;21.60;99.90;;;;;;5069879;28;20551;-88
2022/04/14 14:43:43;;;;;;;22.67;17.87;;;21.60;99.90;;;;;;5063435;28;20467;-88
2022/04/14 14:46:21;;;;;;;19.93;16.23;;;21.70;99.90;;;;;;5061367;28;20468;-88
2022/04/14 14:48:54;;;;;;;26.20;19.13;;;21.90;99.90;;;;;;5059072;28;20821;-87
2022/04/14 14:51:28;;;;;;;20.20;18.03;;;21.70;99.90;;;;;;5060196;28;20464;-87
2022/04/14 14:54:04;;;;;;;20.77;17.00;;;21.80;99.90;;;;;;5061080;28;20542;-87
2022/04/14 14:56:38;;;;;;;21.63;18.77;;;22.00;99.90;;;;;;5071218;28;20478;-87
2022/04/14 14:59:16;;;;;;;22.73;18.83;;;22.00;99.90;;;;;;5059677;28;20452;-87
2022/04/14 15:01:45;;;;;;;23.20;19.63;;;22.00;99.90;;;;;;5059383;28;20466;-87
2022/04/14 15:04:14;;;;;;;22.53;17.00;;;22.10;99.90;;;;;;5061757;28;20467;-87
2022/04/14 15:06:49;;;;;;;21.90;17.40;;;22.10;99.90;;;;;;5080281;28;20845;-87
2022/04/14 15:09:19;;;;;;;21.63;19.30;;;21.80;99.90;;;;;;5080415;28;20512;-88
2022/04/14 15:11:56;;;;;;;20.70;17.37;;;21.60;99.90;;;;;;5079161;28;20517;-88
2022/04/14 15:14:35;;;;;;;26.57;17.37;;;21.70;99.90;;;;;;5095393;28;20466;-89
2022/04/14 15:17:08;;;;;;;18.77;16.70;;;21.70;99.90;;;;;;5096690;28;20499;-87
2022/04/14 15:19:54;;;;;;;23.20;18.60;;;21.60;99.90;;;;;;5084678;28;20455;-87
2022/04/14 15:22:23;;;;;;;22.30;17.30;;;21.40;99.90;;;;;;5080284;28;20489;-88
2022/04/14 15:24:59;;;;;;;23.13;18.50;;;21.60;99.90;;;;;;5080340;28;20944;-88
2022/04/14 15:27:47;;;;;;;25.83;17.80;;;21.90;99.90;;;;;;5079727;28;20447;-88
2022/04/14 15:30:29;;;;;;;19.30;17.13;;;22.00;99.90;;;;;;5081242;28;20590;-88
2022/04/14 15:32:58;;;;;;;22.43;17.97;;;22.10;99.90;;;;;;5096429;28;20455;-87
2022/04/14 15:35:29;;;;;;;18.93;16.40;;;22.10;99.90;;;;;;5096825;28;20472;-88
2022/04/14 15:37:57;;;;;;;21.47;14.73;;;22.10;99.90;;;;;;5087937;28;20444;-88
2022/04/14 15:40:29;;;;;;;20.57;18.33;;;21.90;99.90;;;;;;5081611;28;20482;-89
2022/04/14 15:43:28;;;;;;;19.70;16.60;;;21.60;99.90;;;;;;5081465;28;20440;-87
2022/04/14 15:45:55;;;;;;;26.20;19.20;;;21.60;99.90;;;;;;5080150;28;20529;-88
2022/04/14 15:48:26;;;;;;;22.27;16.30;;;21.70;99.90;;;;;;5083213;28;20448;-88
2022/04/14 15:50:57;;;;;;;20.73;16.03;;;21.80;99.90;;;;;;5094990;28;20436;-88
2022/04/14 15:53:40;;;;;;;21.83;15.90;;;21.80;99.90;;;;;;5096811;28;20463;-87
2022/04/14 15:56:19;;;;;;;19.80;16.67;;;22.00;99.90;;;;;;5096788;28;20506;-88
2022/04/14 15:58:49;;;;;;;17.50;15.57;;;22.00;99.90;;;;;;5092995;28;20450;-87
2022/04/14 16:01:22;;;;;;;17.90;16.00;;;22.00;99.90;;;;;;5087989;28;20525;-87
2022/04/14 16:04:16;;;;;;;17.30;15.50;;;21.90;99.90;;;;;;5083755;28;20464;-87
2022/04/14 16:06:47;;;;;;;17.47;14.53;;;21.60;99.90;;;;;;5096021;28;20435;-87
2022/04/14 16:09:20;;;;;;;20.57;16.67;;;21.40;99.90;;;;;;5095083;28;20420;-86
2022/04/14 16:12:04;;;;;;;21.23;17.53;;;21.30;99.90;;;;;;5082069;28;20455;-86
2022/04/14 16:14:44;;;;;;;20.30;16.40;;;21.30;99.90;;;;;;5079888;28;20430;-87
2022/04/14 16:17:21;;;;;;;18.83;15.20;;;21.40;99.90;;;;;;5078948;28;20475;-87
2022/04/14 16:19:51;;;;;;;17.93;16.00;;;21.40;99.90;;;;;;5079849;28;20510;-88
2022/04/14 16:22:26;;;;;;;18.80;15.47;;;21.50;99.90;;;;;;5079111;28;20431;-87